createdAt,value
2022-11-12T00:01:45.069Z,68.71
2022-11-12T00:04:18.115Z,68.77
2022-11-12T00:06:50.898Z,68.64
2022-11-12T00:09:23.772Z,68.61
2022-11-12T00:11:56.860Z,68.54
2022-11-12T00:14:29.709Z,69.00
2022-11-12T00:17:04.004Z,68.63
2022-11-12T00:19:36.829Z,68.51
2022-11-12T00:22:09.835Z,68.40
2022-11-12T00:24:42.665Z,68.78
2022-11-12T00:27:15.841Z,68.71
2022-11-12T00:29:48.646Z,68.56
2022-11-12T00:32:22.843Z,68.57
2022-11-12T00:34:55.668Z,68.71
2022-11-12T00:37:28.588Z,68.65
2022-11-12T00:40:01.614Z,68.51
2022-11-12T00:42:35.470Z,68.41
2022-11-12T00:45:09.761Z,68.82
2022-11-12T00:47:44.095Z,68.50
2022-11-12T00:50:17.157Z,68.60
2022-11-12T00:52:52.821Z,68.65
2022-11-12T00:55:25.696Z,68.71
2022-11-12T00:57:59.517Z,68.87
2022-11-12T01:00:32.429Z,68.44
2022-11-12T01:03:06.724Z,68.84
2022-11-12T01:05:39.700Z,68.22
2022-11-12T01:08:12.499Z,68.91
2022-11-12T01:10:45.329Z,68.33
2022-11-12T01:13:18.126Z,68.43
2022-11-12T01:15:51.105Z,68.29
2022-11-12T01:18:25.814Z,68.59
2022-11-12T01:21:01.467Z,68.86
2022-11-12T01:23:35.131Z,69.13
2022-11-12T01:26:09.585Z,68.70
2022-11-12T01:28:43.176Z,68.90
2022-11-12T01:31:18.022Z,68.96
2022-11-12T01:33:56.011Z,68.48
2022-11-12T01:36:32.081Z,69.15
2022-11-12T01:39:06.232Z,69.02
2022-11-12T01:41:40.648Z,69.22
2022-11-12T01:44:19.727Z,69.05
2022-11-12T01:47:03.452Z,69.07
2022-11-12T01:49:51.757Z,69.31
2022-11-12T01:52:31.280Z,68.90
2022-11-12T01:55:08.596Z,68.62
2022-11-12T01:57:46.883Z,68.92
2022-11-12T02:00:20.044Z,69.33
2022-11-12T02:02:56.538Z,69.05
2022-11-12T02:05:32.666Z,69.51
2022-11-12T02:08:08.024Z,69.82
2022-11-12T02:10:41.724Z,69.29
2022-11-12T02:13:32.920Z,69.92
2022-11-12T02:16:07.106Z,69.64
2022-11-12T02:18:39.957Z,69.92
2022-11-12T02:21:14.127Z,69.63
2022-11-12T02:23:48.730Z,69.83
2022-11-12T02:26:21.531Z,69.67
2022-11-12T02:28:54.633Z,70.02
2022-11-12T02:31:27.409Z,69.99
2022-11-12T02:34:00.506Z,69.57
2022-11-12T02:36:33.330Z,69.52
2022-11-12T02:39:07.839Z,69.99
2022-11-12T02:41:40.722Z,69.89
2022-11-12T02:44:13.708Z,70.02
2022-11-12T02:46:46.556Z,69.57
2022-11-12T02:49:19.465Z,69.58
2022-11-12T02:51:52.343Z,69.84
2022-11-12T02:54:26.917Z,69.60
2022-11-12T02:56:59.698Z,70.25
2022-11-12T02:59:32.905Z,69.54
2022-11-12T03:02:05.710Z,69.86
2022-11-12T03:04:38.682Z,69.70
2022-11-12T03:07:11.859Z,70.11
2022-11-12T03:09:46.086Z,69.52
2022-11-12T03:12:19.323Z,69.99
2022-11-12T03:14:52.170Z,69.43
2022-11-12T03:17:25.348Z,69.13
2022-11-12T03:19:58.238Z,69.54
2022-11-12T03:22:31.055Z,69.45
2022-11-12T03:25:06.631Z,69.16
2022-11-12T03:27:39.480Z,69.46
2022-11-12T03:30:13.095Z,69.38
2022-11-12T03:32:45.934Z,69.45
2022-11-12T03:35:18.972Z,69.67
2022-11-12T03:37:51.773Z,69.18
2022-11-12T03:40:25.972Z,68.99
2022-11-12T03:42:58.837Z,69.28
2022-11-12T03:45:31.709Z,69.11
2022-11-12T03:48:04.634Z,69.67
2022-11-12T03:50:37.442Z,69.62
2022-11-12T03:53:10.267Z,69.84
2022-11-12T03:55:44.700Z,69.55
2022-11-12T03:58:17.591Z,69.74
2022-11-12T04:00:50.441Z,69.20
2022-11-12T04:03:23.290Z,69.30
2022-11-12T04:06:13.793Z,69.68
2022-11-12T04:08:46.625Z,69.13
2022-11-12T04:11:21.233Z,69.10
2022-11-12T04:13:54.249Z,69.07
2022-11-12T04:16:45.003Z,69.20
2022-11-12T04:19:35.236Z,69.32
2022-11-12T04:22:10.156Z,69.09
2022-11-12T04:25:01.992Z,69.43
2022-11-12T04:27:36.413Z,69.48
2022-11-12T04:30:19.364Z,69.09
2022-11-12T04:32:54.707Z,69.19
2022-11-12T04:35:28.495Z,69.58
2022-11-12T04:38:01.400Z,69.51
2022-11-12T04:40:52.202Z,69.02
2022-11-12T04:43:44.582Z,69.42
2022-11-12T04:46:17.412Z,69.39
2022-11-12T04:48:50.294Z,69.39
2022-11-12T04:51:40.803Z,68.91
2022-11-12T04:54:13.979Z,69.28
2022-11-12T04:56:46.874Z,69.45
2022-11-12T04:59:21.376Z,68.83
2022-11-12T05:01:54.197Z,69.44
2022-11-12T05:04:29.098Z,69.17
2022-11-12T05:07:02.727Z,68.86
2022-11-12T05:09:35.668Z,69.38
2022-11-12T05:12:08.979Z,68.92
2022-11-12T05:14:43.423Z,69.54
2022-11-12T05:17:16.279Z,69.06
2022-11-12T05:19:49.074Z,69.14
2022-11-12T05:22:42.695Z,69.22
2022-11-12T05:25:14.795Z,68.86
2022-11-12T05:27:48.019Z,69.49
2022-11-12T05:30:22.553Z,69.55
2022-11-12T05:32:55.611Z,69.53
2022-11-12T05:35:28.482Z,68.93
2022-11-12T05:38:01.604Z,69.47
2022-11-12T05:40:34.480Z,69.39
2022-11-12T05:43:07.448Z,69.32
2022-11-12T05:45:43.630Z,69.36
2022-11-12T05:48:21.513Z,69.21
2022-11-12T05:51:12.595Z,69.08
2022-11-12T05:53:46.335Z,68.66
2022-11-12T05:56:19.521Z,68.20
2022-11-12T05:58:52.292Z,68.56
2022-11-12T06:01:26.840Z,68.28
2022-11-12T06:03:59.673Z,68.45
2022-11-12T06:06:32.580Z,68.60
2022-11-12T06:09:06.317Z,69.00
2022-11-12T06:11:40.376Z,68.19
2022-11-12T06:14:13.407Z,68.76
2022-11-12T06:16:47.778Z,67.64
2022-11-12T06:19:20.605Z,68.43
2022-11-12T06:21:53.408Z,68.23
2022-11-12T06:24:33.653Z,68.31
2022-11-12T06:27:08.031Z,68.22
2022-11-12T06:29:40.999Z,67.91
2022-11-12T06:32:15.357Z,68.02
2022-11-12T06:34:48.199Z,67.60
2022-11-12T06:37:22.122Z,68.15
2022-11-12T06:39:54.904Z,68.29
2022-11-12T06:42:27.748Z,68.34
2022-11-12T06:45:00.566Z,68.99
2022-11-12T06:47:34.834Z,68.92
2022-11-12T06:50:07.987Z,68.73
2022-11-12T06:52:40.845Z,68.91
2022-11-12T06:55:13.632Z,68.60
2022-11-12T06:57:46.506Z,68.70
2022-11-12T07:00:20.158Z,68.31
2022-11-12T07:02:54.427Z,68.50
2022-11-12T07:05:27.245Z,68.97
2022-11-12T07:08:00.090Z,69.26
2022-11-12T07:10:33.253Z,69.62
2022-11-12T07:13:06.077Z,69.78
2022-11-12T07:15:38.867Z,69.11
2022-11-12T07:18:13.195Z,68.68
2022-11-12T07:20:46.005Z,68.35
2022-11-12T07:23:18.937Z,67.87
2022-11-12T07:25:57.076Z,67.51
2022-11-12T07:28:31.013Z,68.16
2022-11-12T07:31:06.026Z,67.86
2022-11-12T07:33:40.799Z,67.96
2022-11-12T07:36:15.825Z,68.24
2022-11-12T07:38:51.702Z,68.67
2022-11-12T07:41:26.327Z,69.26
2022-11-12T07:43:59.090Z,68.93
2022-11-12T07:46:31.884Z,69.38
2022-11-12T07:49:06.190Z,69.08
2022-11-12T07:51:39.045Z,69.61
2022-11-12T07:54:12.190Z,69.13
2022-11-12T07:56:44.990Z,69.14
2022-11-12T07:59:17.870Z,68.30
2022-11-12T08:01:50.720Z,67.70
2022-11-12T08:04:24.939Z,68.24
2022-11-12T08:06:57.865Z,68.17
2022-11-12T08:09:30.842Z,68.59
2022-11-12T08:12:03.655Z,68.05
2022-11-12T08:14:36.702Z,68.31
2022-11-12T08:17:09.545Z,68.67
2022-11-12T08:19:43.917Z,68.42
2022-11-12T08:22:16.740Z,68.41
2022-11-12T08:24:49.578Z,68.71
2022-11-12T08:27:22.373Z,67.57
2022-11-12T08:29:55.339Z,68.32
2022-11-12T08:32:28.213Z,67.38
2022-11-12T08:35:02.669Z,67.52
2022-11-12T08:37:35.467Z,67.50
2022-11-12T08:40:09.534Z,67.96
2022-11-12T08:42:42.626Z,68.27
2022-11-12T08:45:16.152Z,67.64
2022-11-12T08:47:49.039Z,68.11
2022-11-12T08:50:23.281Z,68.38
2022-11-12T08:53:00.569Z,68.18
2022-11-12T08:55:34.520Z,68.43
2022-11-12T08:58:08.037Z,68.16
2022-11-12T09:00:43.392Z,67.52
2022-11-12T09:03:18.353Z,67.74
2022-11-12T09:05:53.591Z,67.18
2022-11-12T09:08:27.010Z,67.57
2022-11-12T09:11:00.209Z,67.17
2022-11-12T09:13:33.859Z,66.65
2022-11-12T09:16:10.538Z,66.80
2022-11-12T09:18:43.373Z,66.89
2022-11-12T09:21:18.014Z,66.37
2022-11-12T09:23:51.345Z,66.03
2022-11-12T09:26:24.883Z,66.18
2022-11-12T09:28:57.721Z,65.87
2022-11-12T09:31:30.562Z,65.96
2022-11-12T09:34:03.496Z,65.93
2022-11-12T09:36:39.941Z,65.93
2022-11-12T09:39:12.903Z,65.88
2022-11-12T09:41:45.806Z,65.67
2022-11-12T09:44:22.196Z,65.76
2022-11-12T09:47:00.511Z,65.52
2022-11-12T09:49:37.730Z,65.41
2022-11-12T09:52:20.709Z,65.29
2022-11-12T09:55:02.570Z,65.07
2022-11-12T09:57:35.224Z,66.24
2022-11-12T10:00:18.074Z,64.79
2022-11-12T10:02:56.835Z,65.02
2022-11-12T10:05:35.424Z,64.60
2022-11-12T10:08:23.542Z,64.53
2022-11-12T10:11:09.599Z,64.26
2022-11-12T10:13:52.586Z,64.03
2022-11-12T10:16:43.755Z,64.25
2022-11-12T10:19:40.864Z,64.53
2022-11-12T10:22:30.294Z,64.67
2022-11-12T10:25:16.029Z,64.82
2022-11-12T10:27:50.597Z,64.89
2022-11-12T10:30:25.782Z,64.67
2022-11-12T10:32:58.622Z,64.46
2022-11-12T10:35:31.529Z,64.72
2022-11-12T10:38:08.115Z,64.41
2022-11-12T10:40:43.445Z,64.33
2022-11-12T10:43:24.567Z,63.81
2022-11-12T10:46:19.154Z,64.57
2022-11-12T10:48:57.825Z,64.19
2022-11-12T10:51:33.578Z,64.12
2022-11-12T10:54:23.265Z,63.77
2022-11-12T10:56:57.479Z,63.93
2022-11-12T10:59:30.313Z,64.05
2022-11-12T11:02:03.467Z,63.89
2022-11-12T11:04:37.984Z,63.44
2022-11-12T11:07:22.576Z,63.43
2022-11-12T11:09:57.129Z,63.58
2022-11-12T11:12:33.152Z,63.18
2022-11-12T11:15:08.362Z,63.34
2022-11-12T11:17:41.223Z,63.01
2022-11-12T11:20:20.910Z,62.18
2022-11-12T11:22:57.885Z,62.30
2022-11-12T11:25:32.906Z,62.61
2022-11-12T11:28:19.072Z,61.62
2022-11-12T11:30:57.724Z,61.51
2022-11-12T11:33:46.137Z,61.23
2022-11-12T11:36:25.616Z,62.09
2022-11-12T11:39:04.537Z,62.04
2022-11-12T11:41:52.342Z,61.80
2022-11-12T11:44:38.220Z,61.37
2022-11-12T11:47:33.979Z,61.55
2022-11-12T11:50:22.283Z,61.28
2022-11-12T11:53:07.764Z,61.46
2022-11-12T11:55:50.885Z,60.99
2022-11-12T11:58:40.784Z,60.64
2022-11-12T12:01:21.905Z,61.06
2022-11-12T12:04:25.823Z,60.66
2022-11-12T12:07:10.073Z,61.01
2022-11-12T12:09:50.300Z,61.19
2022-11-12T12:12:38.223Z,61.23
2022-11-12T12:15:28.602Z,61.30
2022-11-12T12:18:13.616Z,61.21
2022-11-12T12:20:53.737Z,61.19
2022-11-12T12:23:31.169Z,61.47
2022-11-12T12:26:10.946Z,61.55
2022-11-12T12:28:49.312Z,61.81
2022-11-12T12:31:27.211Z,61.71
2022-11-12T12:34:06.398Z,61.92
2022-11-12T12:36:42.596Z,61.72
2022-11-12T12:39:18.899Z,62.17
2022-11-12T12:41:57.433Z,62.01
2022-11-12T12:44:58.026Z,62.08
2022-11-12T12:47:35.471Z,61.84
2022-11-12T12:50:15.362Z,61.66
2022-11-12T12:53:05.241Z,61.80
2022-11-12T12:55:41.771Z,61.90
2022-11-12T12:58:22.147Z,62.71
2022-11-12T13:01:02.139Z,62.10
2022-11-12T13:04:04.527Z,62.33
2022-11-12T13:06:42.207Z,62.44
2022-11-12T13:09:25.713Z,62.56
2022-11-12T13:12:15.923Z,62.52
2022-11-12T13:14:54.538Z,62.44
2022-11-12T13:17:51.432Z,62.33
2022-11-12T13:20:41.362Z,62.33
2022-11-12T13:24:04.853Z,62.74
2022-11-12T13:26:57.273Z,62.76
2022-11-12T13:29:45.861Z,62.83
2022-11-12T13:32:39.330Z,62.65
2022-11-12T13:35:31.242Z,63.06
2022-11-12T13:38:06.498Z,63.39
2022-11-12T13:40:54.224Z,63.47
2022-11-12T13:43:37.198Z,63.21
2022-11-12T13:46:26.568Z,63.38
2022-11-12T13:49:01.552Z,63.58
2022-11-12T13:51:42.941Z,63.72
2022-11-12T13:54:26.835Z,63.89
2022-11-12T14:00:23.938Z,63.76
2022-11-12T14:02:59.799Z,64.25
2022-11-12T14:05:34.820Z,64.32
2022-11-12T14:08:28.229Z,64.15
2022-11-12T14:11:17.474Z,64.39
2022-11-12T14:14:02.748Z,64.29
2022-11-12T14:16:44.767Z,64.19
2022-11-12T14:19:39.796Z,64.30
2022-11-12T14:22:16.139Z,64.07
2022-11-12T14:24:52.374Z,64.15
2022-11-12T14:27:42.960Z,63.99
2022-11-12T14:30:20.841Z,64.37
2022-11-12T14:33:00.266Z,64.15
2022-11-12T14:35:37.477Z,64.76
2022-11-12T14:38:19.662Z,64.44
2022-11-12T14:40:55.418Z,64.72
2022-11-12T14:43:34.917Z,64.56
2022-11-12T14:46:20.507Z,64.84
2022-11-12T14:48:58.901Z,64.85
2022-11-12T14:51:47.820Z,65.14
2022-11-12T14:54:31.316Z,65.38
2022-11-12T14:57:05.550Z,65.69
2022-11-12T14:59:40.051Z,65.65
2022-11-12T15:02:42.701Z,65.75
2022-11-12T15:05:16.689Z,65.94
2022-11-12T15:07:56.112Z,65.92
2022-11-12T15:10:31.087Z,66.13
2022-11-12T15:13:07.303Z,65.88
2022-11-12T15:15:52.768Z,65.89
2022-11-12T15:18:28.565Z,65.79
2022-11-12T15:21:14.017Z,65.55
2022-11-12T15:23:51.291Z,66.02
2022-11-12T15:26:33.083Z,66.08
2022-11-12T15:29:15.205Z,66.13
2022-11-12T15:31:50.241Z,66.01
2022-11-12T15:34:32.132Z,66.07
2022-11-12T15:37:07.237Z,65.91
2022-11-12T15:39:42.751Z,65.94
2022-11-12T15:42:19.105Z,66.08
2022-11-12T15:44:53.238Z,66.36
2022-11-12T15:47:28.874Z,66.29
2022-11-12T15:50:02.028Z,66.63
2022-11-12T15:52:36.267Z,66.58
2022-11-12T15:55:10.863Z,66.60
2022-11-12T15:57:47.266Z,66.66
2022-11-12T16:00:22.341Z,66.46
2022-11-12T16:02:59.711Z,66.60
2022-11-12T16:05:32.527Z,66.71
2022-11-12T16:08:07.584Z,66.91
2022-11-12T16:10:42.445Z,67.07
2022-11-12T16:13:25.395Z,66.82
2022-11-12T16:15:58.729Z,66.59
2022-11-12T16:18:31.917Z,67.21
2022-11-12T16:21:06.407Z,67.28
2022-11-12T16:23:45.453Z,67.45
2022-11-12T16:26:24.703Z,67.55
2022-11-12T16:28:57.824Z,67.37
2022-11-12T16:31:30.792Z,67.62
2022-11-12T16:34:03.923Z,67.66
2022-11-12T16:36:37.719Z,67.79
2022-11-12T16:39:14.492Z,68.03
2022-11-12T16:41:47.302Z,68.18
2022-11-12T16:44:20.161Z,68.12
2022-11-12T16:46:53.074Z,68.15
2022-11-12T16:49:32.149Z,67.69
2022-11-12T16:52:13.391Z,67.69
2022-11-12T16:54:48.026Z,67.64
2022-11-12T16:57:21.070Z,67.52
2022-11-12T16:59:55.062Z,67.72
2022-11-12T17:02:28.119Z,67.65
2022-11-12T17:05:03.668Z,67.79
2022-11-12T17:07:36.545Z,67.94
2022-11-12T17:10:17.369Z,67.91
2022-11-12T17:12:50.443Z,67.75
2022-11-12T17:15:23.470Z,68.41
2022-11-12T17:17:56.260Z,68.50
2022-11-12T17:20:29.148Z,68.20
2022-11-12T17:23:03.241Z,67.98
2022-11-12T17:25:37.732Z,68.24
2022-11-12T17:28:10.534Z,68.37
2022-11-12T17:30:45.717Z,68.16
2022-11-12T17:33:18.871Z,68.11
2022-11-12T17:35:52.221Z,68.10
2022-11-12T17:38:25.073Z,68.27
2022-11-12T17:40:59.708Z,67.88
2022-11-12T17:43:32.632Z,68.12
2022-11-12T17:46:06.996Z,68.24
2022-11-12T17:48:40.083Z,67.92
2022-11-12T17:51:16.321Z,68.38
2022-11-12T17:53:49.545Z,68.14
2022-11-12T17:56:24.738Z,68.21
2022-11-12T17:58:57.575Z,68.07
2022-11-12T18:01:32.960Z,68.41
2022-11-12T18:04:06.360Z,68.29
2022-11-12T18:06:39.390Z,68.69
2022-11-12T18:09:15.553Z,68.66
2022-11-12T18:11:54.182Z,68.89
2022-11-12T18:14:27.013Z,68.80
2022-11-12T18:17:01.420Z,68.90
2022-11-12T18:19:34.512Z,68.51
2022-11-12T18:22:08.733Z,68.59
2022-11-12T18:24:41.619Z,68.55
2022-11-12T18:27:16.591Z,68.58
2022-11-12T18:29:50.748Z,68.35
2022-11-12T18:32:26.031Z,68.33
2022-11-12T18:34:58.878Z,68.89
2022-11-12T18:37:31.825Z,68.45
2022-11-12T18:40:05.282Z,68.64
2022-11-12T18:42:39.580Z,68.75
2022-11-12T18:45:12.582Z,68.71
2022-11-12T18:47:46.534Z,68.62
2022-11-12T18:50:22.264Z,68.90
2022-11-12T18:52:55.501Z,68.40
2022-11-12T18:55:28.313Z,68.61
2022-11-12T18:58:02.537Z,68.73
2022-11-12T19:00:38.487Z,68.27
2022-11-12T19:03:12.323Z,68.75
2022-11-12T19:05:47.897Z,68.28
2022-11-12T19:08:24.061Z,68.29
2022-11-12T19:11:05.245Z,68.41
2022-11-12T19:13:41.810Z,68.36
2022-11-12T19:16:17.190Z,68.73
2022-11-12T19:18:51.771Z,68.81
2022-11-12T19:21:26.765Z,68.82
2022-11-12T19:24:00.574Z,68.69
2022-11-12T19:26:33.694Z,69.08
2022-11-12T19:29:08.295Z,69.08
2022-11-12T19:31:44.182Z,69.13
2022-11-12T19:34:19.191Z,68.73
2022-11-12T19:37:11.808Z,68.61
2022-11-12T19:39:46.170Z,68.95
2022-11-12T19:42:19.290Z,68.75
2022-11-12T19:44:53.666Z,68.88
2022-11-12T19:47:27.780Z,69.44
2022-11-12T19:50:02.901Z,68.67
2022-11-12T19:52:35.751Z,69.12
2022-11-12T19:55:09.183Z,68.60
2022-11-12T19:57:45.615Z,69.12
2022-11-12T20:00:20.444Z,68.86
2022-11-12T20:02:53.470Z,69.62
2022-11-12T20:05:27.167Z,69.30
2022-11-12T20:08:00.860Z,68.81
2022-11-12T20:10:34.141Z,69.82
2022-11-12T20:13:08.341Z,69.35
2022-11-12T20:15:43.524Z,69.07
2022-11-12T20:18:16.614Z,70.01
2022-11-12T20:20:51.936Z,69.63
2022-11-12T20:23:26.451Z,69.96
2022-11-12T20:26:03.441Z,69.73
2022-11-12T20:28:37.152Z,70.00
2022-11-12T20:31:15.472Z,70.07
2022-11-12T20:33:49.050Z,70.74
2022-11-12T20:36:23.150Z,70.43
2022-11-12T20:38:56.336Z,69.91
2022-11-12T20:41:29.793Z,70.60
2022-11-12T20:44:03.019Z,70.16
2022-11-12T20:46:37.233Z,70.15
2022-11-12T20:49:10.348Z,70.99
2022-11-12T20:51:43.189Z,71.09
2022-11-12T20:54:16.235Z,71.15
2022-11-12T20:56:50.789Z,71.00
2022-11-12T20:59:24.409Z,70.96
2022-11-12T21:01:58.879Z,70.81
2022-11-12T21:04:31.757Z,70.47
2022-11-12T21:07:05.613Z,70.66
2022-11-12T21:09:38.933Z,69.88
2022-11-12T21:12:11.760Z,70.09
2022-11-12T21:14:50.037Z,70.31
2022-11-12T21:17:25.235Z,70.42
2022-11-12T21:19:58.075Z,70.63
2022-11-12T21:22:31.013Z,70.46
2022-11-12T21:25:04.316Z,69.95
2022-11-12T21:27:37.249Z,69.89
2022-11-12T21:30:11.534Z,69.74
2022-11-12T21:32:48.352Z,69.39
2022-11-12T21:35:21.141Z,69.74
2022-11-12T21:37:53.978Z,70.24
2022-11-12T21:40:26.796Z,69.43
2022-11-12T21:43:01.250Z,69.47
2022-11-12T21:45:35.348Z,69.17
2022-11-12T21:48:09.694Z,69.21
2022-11-12T21:50:42.526Z,69.82
2022-11-12T21:53:15.735Z,69.46
2022-11-12T21:55:48.863Z,69.98
2022-11-12T21:58:21.727Z,70.20
2022-11-12T22:00:54.526Z,69.55
2022-11-12T22:03:31.162Z,70.05
2022-11-12T22:06:04.383Z,70.48
2022-11-12T22:08:37.547Z,70.15
2022-11-12T22:11:12.683Z,70.15
2022-11-12T22:13:46.420Z,70.48
2022-11-12T22:16:20.938Z,71.00
2022-11-12T22:18:56.955Z,69.94
2022-11-12T22:21:38.345Z,70.73
2022-11-12T22:24:14.902Z,71.02
2022-11-12T22:26:47.781Z,70.66
2022-11-12T22:29:21.630Z,71.13
2022-11-12T22:31:54.507Z,70.64
2022-11-12T22:34:30.396Z,70.69
2022-11-12T22:37:07.080Z,70.15
2022-11-12T22:39:41.575Z,70.61
2022-11-12T22:42:15.973Z,70.02
2022-11-12T22:44:49.312Z,70.98
2022-11-12T22:47:22.316Z,69.95
2022-11-12T22:49:56.546Z,69.95
2022-11-12T22:52:29.403Z,70.10
2022-11-12T22:55:02.198Z,70.00
2022-11-12T22:57:35.336Z,69.56
2022-11-12T23:00:11.270Z,69.95
2022-11-12T23:02:47.555Z,70.04
2022-11-12T23:05:22.847Z,70.64
2022-11-12T23:07:55.676Z,71.04
2022-11-12T23:10:28.607Z,71.31
2022-11-12T23:13:01.510Z,70.92
2022-11-12T23:15:34.355Z,70.84
2022-11-12T23:18:07.196Z,70.92
2022-11-12T23:20:41.473Z,70.79
2022-11-12T23:23:14.583Z,70.86
2022-11-12T23:25:47.559Z,70.86
2022-11-12T23:28:20.365Z,71.25
2022-11-12T23:30:53.273Z,70.52
2022-11-12T23:33:26.146Z,70.75
2022-11-12T23:36:07.185Z,70.47
2022-11-12T23:38:40.373Z,70.43
2022-11-12T23:41:14.780Z,70.91
2022-11-12T23:43:47.621Z,70.74
2022-11-12T23:46:21.083Z,70.92
2022-11-12T23:48:53.992Z,70.89
2022-11-12T23:51:28.571Z,70.96
2022-11-12T23:54:01.373Z,71.36
2022-11-12T23:56:34.277Z,70.62
2022-11-12T23:59:07.267Z,70.82
